mercredi 12 mars 2014

ALERTE SPOTTING 12/03/14

BEH F-GPYY Atlantique Air Assistance
   A5260/A5261   08h15/08h50
A5262/A58210   12h35/13h00

73H CN-RGN RAM (sticker 50th 737)
     AT780/AT749   11h15/12h15
  AT740/AT781   19h25/20h40

73H LN-NGE Norwegian (dérive Unicef)
   DY5836/DY5837   19h05/19h40

Manque les prévisions/immats UX / BE / AZ / TP / BA / AH
*** Heures en Local Time **
Prévisions matinales soumises à modifications de dernières minute. Voir le log du mois pour la version 'définitive' de la journée: http://www.airkalo.com/ORLYAVIATION/Logdumois.html

le TAF de la journée:


METAR: LFPO 120400Z 03006KT 4000 BR NSC 07/04 Q1028 NOSIG=
TAF LONG: LFPO 112300Z 1200/1306 04006KT 3500 BR NSC BECMG 1208/1210 7000
NSW TEMPO 1210/1217 CAVOK BECMG 1220/1222 30003KT 3000 BR PROB40
TEMPO 1303/1306 0400 BCFG=